CZEM/ZEM METAR and TAF weather

Enter ICAO airport designator
Station Type Date Time Source
CZEM METAR 2018/04/19 13:00 UTC NOAA

CZEM 191300Z 35010KT 15SM FEW220 M05/M10 A3008 RMK CI2 SLP189


Station Type Date Time Source
CZEM Decoded METAR 2018/04/19 13:00 UTC NOAA

Eastmain River Airport, Canada (CZEM) 52-14N 078-31W
Apr 19, 2018 - 09:00 AM EDT / 2018.04.19 1300 UTC
Wind: from the N (350 degrees) at 12 MPH (10 KT):0
Visibility: 15 mile(s):0
Sky conditions: mostly clear
Temperature: 23 F (-5 C)
Windchill: 12 F (-11 C):1
Dew Point: 14 F (-10 C)
Relative Humidity: 67%
Pressure (altimeter): 30.08 in. Hg (1018 hPa)
ob: CZEM 191300Z 35010KT 15SM FEW220 M05/M10 A3008 RMK CI2 SLP189
cycle: 13

Station Type Date Time Source
CZEM TAF UTC NOAA

Error!


Example: see airport list